Time;durP1;ratioP1;P1;durP2;ratioP2;P2;SDS_P1;SDS_P2;PMS_P1;PMS_P2;Temp;Humidity;BMP_temperature;BMP_pressure;BME280_temperature;BME280_humidity;BME280_pressure;Samples;Min_cycle;Max_cycle;Signal;HPM_P1;HPM_P2
2024/04/21 00:01:56;;;;;;;;;;;;;;;10.71;84.61;99491.19;5488109;26;20269;-78
2024/04/21 00:04:24;;;;;;;;;;;;;;;10.84;82.46;99485.59;5487515;26;19935;-78
2024/04/21 00:06:49;;;;;;;;;;;;;;;10.90;82.98;99489.19;5488329;26;19930;-78
2024/04/21 00:09:14;;;;;;;;;;;;;;;10.59;85.32;99493.06;5487930;26;19924;-78
2024/04/21 00:11:41;;;;;;;;;;;;;;;10.90;84.38;99505.19;5488200;26;19992;-78
2024/04/21 00:14:07;;;;;;;;;;;;;;;10.91;83.07;99501.50;5487616;26;19924;-77
2024/04/21 00:16:32;;;;;;;;;;;;;;;10.90;84.17;99504.38;5486138;26;19992;-77
2024/04/21 00:18:57;;;;;;;;;;;;;;;10.90;85.12;99499.03;5486267;26;19924;-80
2024/04/21 00:21:23;;;;;;;;;;;;;;;10.89;84.24;99508.09;5488114;26;19925;-79
2024/04/21 00:23:48;;;;;;;;;;;;;;;10.89;87.28;99508.09;5486086;26;19992;-78
2024/04/21 00:26:13;;;;;;;;;;;;;;;10.82;85.90;99509.00;5453238;26;20072;-78
2024/04/21 00:28:38;;;;;;;;;;;;;;;10.83;85.40;99504.50;5449973;26;19925;-78
2024/04/21 00:31:04;;;;;;;;;;;;;;;10.62;85.35;99488.06;5451541;26;19924;-78
2024/04/21 00:33:29;;;;;;;;;;;;;;;10.39;87.14;99498.72;5451699;26;19936;-78
2024/04/21 00:35:54;;;;;;;;;;;;;;;10.06;91.05;99500.84;5452087;26;20294;-80
2024/04/21 00:38:19;;;;;;;;;;;;;;;10.04;91.10;99502.13;5451882;26;19924;-79
2024/04/21 00:40:45;;;;;;;;;;;;;;;10.62;88.51;99501.41;5449638;26;19925;-79
2024/04/21 00:43:10;;;;;;;;;;;;;;;10.87;86.58;99505.66;5449898;26;19924;-79
2024/04/21 00:45:45;;;;;;;;;;;;;;;10.68;89.94;99504.16;5453504;26;20272;-79
2024/04/21 00:48:11;;;;;;;;;;;;;;;10.91;86.05;99506.81;5451604;26;19925;-78
2024/04/21 00:50:38;;;;;;;;;;;;;;;10.94;86.48;99503.66;5451498;26;20376;-79
2024/04/21 00:53:04;;;;;;;;;;;;;;;10.48;91.39;99502.66;5449907;26;19931;-79
2024/04/21 00:55:29;;;;;;;;;;;;;;;10.71;87.94;99498.38;5474056;26;19924;-79
2024/04/21 00:57:55;;;;;;;;;;;;;;;10.71;89.17;99496.53;5487424;26;19931;-78
2024/04/21 01:00:22;;;;;;;;;;;;;;;10.63;92.14;99508.34;5487815;26;19932;-80
2024/04/21 01:02:48;;;;;;;;;;;;;;;10.22;95.93;99511.91;5487471;26;20264;-79
2024/04/21 01:05:13;;;;;;;;;;;;;;;9.86;100.00;99516.34;5471149;26;20361;-79
2024/04/21 01:07:38;;;;;;;;;;;;;;;10.14;100.00;99520.22;5450777;26;19931;-79
2024/04/21 01:10:04;;;;;;;;;;;;;;;10.12;100.00;99532.97;5451033;26;19925;-79
2024/04/21 01:12:29;;;;;;;;;;;;;;;10.60;97.72;99526.66;5449180;26;19924;-78
2024/04/21 01:14:54;;;;;;;;;;;;;;;10.30;96.67;99535.56;5463409;26;19924;-78
2024/04/21 01:17:20;;;;;;;;;;;;;;;10.22;98.23;99535.88;5487357;26;20365;-78
2024/04/21 01:19:45;;;;;;;;;;;;;;;9.98;100.00;99532.34;5487415;26;19931;-78
2024/04/21 01:22:10;;;;;;;;;;;;;;;9.80;100.00;99531.38;5487303;26;20166;-78
2024/04/21 01:24:36;;;;;;;;;;;;;;;9.65;100.00;99526.47;5481917;26;20365;-79
2024/04/21 01:27:01;;;;;;;;;;;;;;;9.66;100.00;99529.91;5450440;26;19925;-77
2024/04/21 01:29:26;;;;;;;;;;;;;;;9.36;100.00;99522.75;5450686;26;20414;-76
2024/04/21 01:31:51;;;;;;;;;;;;;;;9.37;100.00;99518.22;5450476;26;20338;-78
2024/04/21 01:34:17;;;;;;;;;;;;;;;9.10;100.00;99523.06;5450335;26;19960;-76
2024/04/21 01:36:42;;;;;;;;;;;;;;;9.25;100.00;99527.00;5485585;26;19934;-76
2024/04/21 01:39:07;;;;;;;;;;;;;;;9.28;100.00;99530.25;5487001;26;19965;-78
2024/04/21 01:41:32;;;;;;;;;;;;;;;9.14;100.00;99535.69;5484661;26;19957;-77
2024/04/21 01:43:58;;;;;;;;;;;;;;;9.13;100.00;99533.25;5486833;26;19923;-77
2024/04/21 01:46:23;;;;;;;;;;;;;;;9.01;99.27;99536.66;5456008;26;19957;-77
2024/04/21 01:48:49;;;;;;;;;;;;;;;9.04;100.00;99540.72;5450516;26;20327;-78
2024/04/21 01:51:14;;;;;;;;;;;;;;;9.05;100.00;99542.34;5450262;26;19924;-77
2024/04/21 01:53:39;;;;;;;;;;;;;;;9.04;98.08;99540.72;5450117;26;19924;-77
2024/04/21 01:56:04;;;;;;;;;;;;;;;8.71;100.00;99536.56;5477060;26;19931;-78
2024/04/21 01:58:30;;;;;;;;;;;;;;;8.84;99.88;99551.56;5486399;26;19923;-77
2024/04/21 02:00:55;;;;;;;;;;;;;;;9.01;98.02;99546.47;5487124;26;19924;-79
2024/04/21 02:03:20;;;;;;;;;;;;;;;9.05;96.32;99548.50;5486436;26;19924;-78
2024/04/21 02:05:45;;;;;;;;;;;;;;;9.03;96.21;99545.25;5467405;26;19932;-78
2024/04/21 02:08:11;;;;;;;;;;;;;;;9.11;94.90;99557.41;5450141;26;20322;-78
2024/04/21 02:10:36;;;;;;;;;;;;;;;9.01;96.15;99557.13;5448492;26;19931;-77
2024/04/21 02:13:01;;;;;;;;;;;;;;;8.94;96.33;99556.38;5450220;26;19932;-79
2024/04/21 02:15:27;;;;;;;;;;;;;;;9.08;93.35;99551.75;5452191;26;19931;-79
2024/04/21 02:17:52;;;;;;;;;;;;;;;9.00;94.58;99545.66;5449895;26;19931;-78
2024/04/21 02:20:17;;;;;;;;;;;;;;;8.94;97.13;99545.75;5448013;26;19936;-79
2024/04/21 02:22:42;;;;;;;;;;;;;;;8.80;95.88;99545.06;5448182;26;19924;-77
2024/04/21 02:25:08;;;;;;;;;;;;;;;8.68;97.49;99539.66;5459341;26;19992;-78
2024/04/21 02:27:33;;;;;;;;;;;;;;;8.69;97.09;99535.16;5486007;26;19931;-77
2024/04/21 02:29:58;;;;;;;;;;;;;;;8.64;96.02;99530.47;5485716;26;19955;-77
2024/04/21 02:32:23;;;;;;;;;;;;;;;8.40;99.82;99522.31;5485916;26;19947;-77
2024/04/21 02:34:49;;;;;;;;;;;;;;;8.25;100.00;99527.94;5485459;26;20347;-77
2024/04/21 02:37:14;;;;;;;;;;;;;;;8.33;100.00;99529.50;5484054;26;19928;-76
2024/04/21 02:39:39;;;;;;;;;;;;;;;8.09;100.00;99527.66;5485959;26;19923;-78
2024/04/21 02:42:05;;;;;;;;;;;;;;;8.25;100.00;99527.13;5485874;26;19924;-77
2024/04/21 02:44:30;;;;;;;;;;;;;;;8.18;100.00;99526.38;5485715;26;19931;-77
2024/04/21 02:46:55;;;;;;;;;;;;;;;7.94;100.00;99528.78;5484870;26;19996;-78
2024/04/21 02:49:21;;;;;;;;;;;;;;;7.85;100.00;99524.75;5485978;26;20000;-78
2024/04/21 02:51:46;;;;;;;;;;;;;;;8.13;100.00;99519.06;5484227;26;19953;-78
2024/04/21 02:54:11;;;;;;;;;;;;;;;7.94;100.00;99526.13;5485699;26;19923;-77
2024/04/21 02:56:37;;;;;;;;;;;;;;;7.99;100.00;99528.97;5484827;26;19924;-78
2024/04/21 02:59:02;;;;;;;;;;;;;;;8.30;100.00;99524.63;5485469;26;19930;-78
2024/04/21 03:01:27;;;;;;;;;;;;;;;8.26;100.00;99523.44;5485473;26;19924;-78
2024/04/21 03:03:53;;;;;;;;;;;;;;;7.93;100.00;99516.53;5485409;26;19924;-77
2024/04/21 03:06:18;;;;;;;;;;;;;;;7.90;100.00;99532.88;5463432;26;19931;-77
2024/04/21 03:08:44;;;;;;;;;;;;;;;7.85;100.00;99532.72;5448950;26;19936;-78
2024/04/21 03:11:09;;;;;;;;;;;;;;;7.86;100.00;99539.66;5449410;26;20366;-77
2024/04/21 03:13:35;;;;;;;;;;;;;;;7.68;100.00;99539.56;5449005;26;20018;-78
2024/04/21 03:16:04;;;;;;;;;;;;;;;7.70;100.00;99540.16;5464408;26;19948;-77
2024/04/21 03:18:29;;;;;;;;;;;;;;;7.49;100.00;99536.78;5488703;26;19924;-78
2024/04/21 03:20:57;;;;;;;;;;;;;;;7.48;100.00;99548.44;5489203;26;20317;-78
2024/04/21 03:23:23;;;;;;;;;;;;;;;7.64;100.00;99542.66;5488904;26;19931;-78
2024/04/21 03:25:48;;;;;;;;;;;;;;;7.69;100.00;99535.88;5487846;26;19924;-78
2024/04/21 03:28:13;;;;;;;;;;;;;;;7.64;100.00;99537.34;5488803;26;19931;-77
2024/04/21 03:30:39;;;;;;;;;;;;;;;7.96;100.00;99532.03;5488947;26;20002;-78
2024/04/21 03:33:04;;;;;;;;;;;;;;;7.90;100.00;99540.84;5488829;26;19924;-77
2024/04/21 03:35:29;;;;;;;;;;;;;;;7.91;100.00;99542.50;5481330;26;19931;-77
2024/04/21 03:37:54;;;;;;;;;;;;;;;7.77;100.00;99540.94;5452295;26;19924;-76
2024/04/21 03:40:20;;;;;;;;;;;;;;;7.76;100.00;99540.13;5452285;26;20297;-78
2024/04/21 03:42:45;;;;;;;;;;;;;;;7.76;100.00;99544.63;5452231;26;19992;-77
2024/04/21 03:45:10;;;;;;;;;;;;;;;7.78;100.00;99539.91;5454957;26;20279;-79
2024/04/21 03:47:36;;;;;;;;;;;;;;;8.01;100.00;99542.84;5451985;26;19939;-78
2024/04/21 03:50:01;;;;;;;;;;;;;;;8.05;100.00;99543.22;5450618;26;19956;-79
2024/04/21 03:52:26;;;;;;;;;;;;;;;8.16;100.00;99545.16;5452017;26;19990;-78
2024/04/21 03:54:52;;;;;;;;;;;;;;;8.13;100.00;99550.09;5452088;26;20069;-78
2024/04/21 03:57:17;;;;;;;;;;;;;;;8.00;100.00;99556.31;5486371;26;20238;-77
2024/04/21 03:59:42;;;;;;;;;;;;;;;7.97;100.00;99551.44;5488327;26;19988;-78
2024/04/21 04:02:07;;;;;;;;;;;;;;;8.12;100.00;99551.13;5488960;26;19931;-79
2024/04/21 04:04:33;;;;;;;;;;;;;;;8.38;100.00;99548.28;5487847;26;19934;-77
2024/04/21 04:06:58;;;;;;;;;;;;;;;8.32;100.00;99554.47;5461094;26;19928;-78
2024/04/21 04:09:23;;;;;;;;;;;;;;;8.37;100.00;99554.59;5451723;26;19924;-78
2024/04/21 04:11:49;;;;;;;;;;;;;;;8.39;100.00;99555.19;5451889;26;19924;-78
2024/04/21 04:14:15;;;;;;;;;;;;;;;8.48;100.00;99568.25;5451564;26;19925;-79
2024/04/21 04:16:40;;;;;;;;;;;;;;;8.36;100.00;99560.16;5453938;26;20361;-78
2024/04/21 04:19:05;;;;;;;;;;;;;;;8.39;100.00;99565.84;5452162;26;19925;-79
2024/04/21 04:21:31;;;;;;;;;;;;;;;8.36;100.00;99566.28;5451667;26;19924;-79
2024/04/21 04:23:56;;;;;;;;;;;;;;;8.24;100.00;99562.69;5452080;26;19992;-79
2024/04/21 04:26:21;;;;;;;;;;;;;;;8.29;100.00;99565.50;5454058;26;19932;-78
2024/04/21 04:28:47;;;;;;;;;;;;;;;8.52;100.00;99553.50;5450382;26;19931;-79
2024/04/21 04:31:12;;;;;;;;;;;;;;;8.65;100.00;99553.38;5451353;26;19930;-79
2024/04/21 04:33:37;;;;;;;;;;;;;;;9.00;100.00;99563.47;5451959;26;20663;-78
2024/04/21 04:36:03;;;;;;;;;;;;;;;9.00;100.00;99560.81;5452251;26;20249;-79
2024/04/21 04:38:28;;;;;;;;;;;;;;;9.13;100.00;99560.66;5451428;26;19931;-79
2024/04/21 04:40:53;;;;;;;;;;;;;;;9.63;100.00;99565.81;5450192;26;20639;-79
2024/04/21 04:43:19;;;;;;;;;;;;;;;9.86;100.00;99564.28;5449813;26;19936;-79
2024/04/21 04:45:44;;;;;;;;;;;;;;;9.93;100.00;99570.34;5449341;26;19932;-78
2024/04/21 04:48:09;;;;;;;;;;;;;;;9.98;100.00;99573.13;5451532;26;20323;-79
2024/04/21 04:50:35;;;;;;;;;;;;;;;10.17;100.00;99578.38;5459109;26;19932;-78
2024/04/21 04:53:01;;;;;;;;;;;;;;;9.97;100.00;99571.50;5468416;26;19946;-78
2024/04/21 04:55:26;;;;;;;;;;;;;;;10.01;100.00;99578.00;5453411;26;19956;-78
2024/04/21 04:57:51;;;;;;;;;;;;;;;9.94;100.00;99571.94;5487210;26;19924;-77
2024/04/21 05:00:16;;;;;;;;;;;;;;;9.88;100.00;99575.50;5487398;26;20342;-78
2024/04/21 05:02:42;;;;;;;;;;;;;;;10.06;100.00;99575.47;5487687;26;20414;-78
2024/04/21 05:05:07;;;;;;;;;;;;;;;10.00;100.00;99568.38;5485571;26;19923;-79
2024/04/21 05:07:34;;;;;;;;;;;;;;;10.18;100.00;99567.50;5454467;26;19924;-79
2024/04/21 05:09:59;;;;;;;;;;;;;;;10.31;100.00;99581.69;5451004;26;19936;-78
2024/04/21 05:12:24;;;;;;;;;;;;;;;10.47;100.00;99570.34;5451290;26;19950;-78
2024/04/21 05:14:50;;;;;;;;;;;;;;;10.71;100.00;99573.06;5450698;26;19924;-79
2024/04/21 05:17:15;;;;;;;;;;;;;;;10.83;100.00;99579.19;5477909;26;19952;-78
2024/04/21 05:19:40;;;;;;;;;;;;;;;10.98;100.00;99573.38;5487329;26;20249;-77
2024/04/21 05:22:06;;;;;;;;;;;;;;;10.97;100.00;99571.75;5487834;26;19924;-78
2024/04/21 05:24:31;;;;;;;;;;;;;;;11.10;98.79;99574.19;5487373;26;20269;-77
2024/04/21 05:26:57;;;;;;;;;;;;;;;10.85;100.00;99571.78;5464569;26;19932;-78
2024/04/21 05:29:22;;;;;;;;;;;;;;;10.95;100.00;99576.50;5450721;26;20650;-77
2024/04/21 05:31:47;;;;;;;;;;;;;;;10.60;100.00;99575.50;5450878;26;19994;-79
2024/04/21 05:34:13;;;;;;;;;;;;;;;10.86;100.00;99568.84;5450750;26;19961;-78
2024/04/21 05:36:38;;;;;;;;;;;;;;;10.70;100.00;99537.56;5450462;26;20002;-78
2024/04/21 05:39:03;;;;;;;;;;;;;;;11.09;96.77;99577.88;5450005;26;19933;-78
2024/04/21 05:41:29;;;;;;;;;;;;;;;11.36;93.62;99578.22;5449921;26;19997;-77
2024/04/21 05:43:54;;;;;;;;;;;;;;;11.39;94.11;99583.06;5450283;26;20269;-79
2024/04/21 05:46:19;;;;;;;;;;;;;;;11.65;92.50;99586.25;5461080;26;19992;-79
2024/04/21 05:48:44;;;;;;;;;;;;;;;11.74;92.91;99589.34;5485171;26;19931;-78
2024/04/21 05:51:10;;;;;;;;;;;;;;;11.48;92.20;99580.81;5486874;26;19924;-78
2024/04/21 05:53:35;;;;;;;;;;;;;;;11.60;90.38;99573.59;5487013;26;19923;-78
2024/04/21 05:56:00;;;;;;;;;;;;;;;11.58;88.95;99570.34;5483624;26;20637;-77
2024/04/21 05:58:26;;;;;;;;;;;;;;;11.99;82.06;99581.84;5486470;26;20287;-79
2024/04/21 06:00:51;;;;;;;;;;;;;;;12.29;81.77;99583.41;5486205;26;20017;-78
2024/04/21 06:03:16;;;;;;;;;;;;;;;12.51;77.38;99585.38;5484850;26;19931;-78
2024/04/21 06:05:41;;;;;;;;;;;;;;;12.58;74.64;99583.34;5486542;26;19924;-78
2024/04/21 06:08:07;;;;;;;;;;;;;;;12.68;75.02;99583.50;5485757;26;19923;-78
2024/04/21 06:10:32;;;;;;;;;;;;;;;12.62;75.78;99581.81;5486149;26;19936;-80
2024/04/21 06:12:57;;;;;;;;;;;;;;;12.99;74.97;99586.63;5486485;26;19948;-79
2024/04/21 06:15:23;;;;;;;;;;;;;;;13.09;77.11;99584.09;5484189;26;19935;-78
2024/04/21 06:17:49;;;;;;;;;;;;;;;13.00;73.03;99585.56;5457377;26;19934;-79
2024/04/21 06:20:14;;;;;;;;;;;;;;;12.92;71.01;99586.81;5447536;26;19936;-78
2024/04/21 06:22:39;;;;;;;;;;;;;;;12.85;73.89;99572.78;5447442;26;19931;-78
2024/04/21 06:25:05;;;;;;;;;;;;;;;13.04;69.66;99587.50;5445634;26;19932;-80
2024/04/21 06:27:30;;;;;;;;;;;;;;;12.58;70.13;99580.66;5449870;26;19924;-79
2024/04/21 06:29:57;;;;;;;;;;;;;;;12.65;71.41;99578.66;5445872;26;19924;-79
2024/04/21 06:32:22;;;;;;;;;;;;;;;13.08;71.04;99582.47;5447326;26;19932;-78
2024/04/21 06:34:47;;;;;;;;;;;;;;;13.26;67.37;99578.72;5447080;26;20342;-78
2024/04/21 06:37:12;;;;;;;;;;;;;;;13.29;65.74;99577.38;5467751;26;19923;-78
2024/04/21 06:39:38;;;;;;;;;;;;;;;13.48;67.23;99581.41;5485943;26;20261;-79
2024/04/21 06:42:04;;;;;;;;;;;;;;;13.24;63.79;99594.22;5484400;26;19924;-79
2024/04/21 06:44:29;;;;;;;;;;;;;;;13.35;64.99;99585.25;5485922;26;19967;-79
2024/04/21 06:46:54;;;;;;;;;;;;;;;13.45;65.61;99582.72;5473197;26;19956;-79
2024/04/21 06:49:19;;;;;;;;;;;;;;;13.71;63.82;99580.34;5449545;26;19931;-80
2024/04/21 06:51:45;;;;;;;;;;;;;;;13.92;61.77;99586.72;5450504;26;19924;-79
2024/04/21 06:54:10;;;;;;;;;;;;;;;13.99;62.96;99576.59;5453534;26;19928;-79
2024/04/21 06:56:35;;;;;;;;;;;;;;;14.46;61.55;99594.72;5462139;26;19960;-79
2024/04/21 06:59:01;;;;;;;;;;;;;;;14.33;58.04;99603.19;5489610;26;20362;-79
2024/04/21 07:01:26;;;;;;;;;;;;;;;14.45;61.07;99600.34;5489529;26;19956;-80
2024/04/21 07:03:51;;;;;;;;;;;;;;;14.21;60.86;99599.88;5489637;26;19924;-79
2024/04/21 07:06:16;;;;;;;;;;;;;;;14.01;60.62;99589.75;5488085;26;20659;-79
2024/04/21 07:08:42;;;;;;;;;;;;;;;14.40;63.40;99587.69;5486220;26;19931;-80
2024/04/21 07:11:07;;;;;;;;;;;;;;;14.38;66.00;99580.97;5482118;26;20330;-79
2024/04/21 07:13:32;;;;;;;;;;;;;;;14.55;64.22;99584.34;5463921;26;19931;-80
2024/04/21 07:15:57;;;;;;;;;;;;;;;14.83;63.77;99585.91;5469223;26;19924;-81
2024/04/21 07:18:23;;;;;;;;;;;;;;;14.45;63.98;99579.69;5469085;26;19987;-79
2024/04/21 07:20:48;;;;;;;;;;;;;;;14.40;65.17;99584.19;5477143;26;20405;-80
2024/04/21 07:23:14;;;;;;;;;;;;;;;14.38;67.49;99581.75;5467105;26;20693;-80
2024/04/21 07:25:39;;;;;;;;;;;;;;;14.51;67.53;99580.53;5467104;26;19925;-80
2024/04/21 07:28:04;;;;;;;;;;;;;;;15.05;66.74;99598.38;5465765;26;19924;-78
2024/04/21 07:30:29;;;;;;;;;;;;;;;15.00;68.74;99596.47;5470987;26;19925;-80
2024/04/21 07:32:55;;;;;;;;;;;;;;;14.78;67.49;99593.91;5466463;26;19924;-79
2024/04/21 07:35:21;;;;;;;;;;;;;;;14.88;67.47;99597.75;5471651;26;20330;-79
2024/04/21 07:37:46;;;;;;;;;;;;;;;14.78;67.22;99596.59;5470562;26;19932;-79
2024/04/21 07:40:15;;;;;;;;;;;;;;;14.59;67.57;99590.03;5468180;26;19925;-79
2024/04/21 07:42:40;;;;;;;;;;;;;;;15.03;67.63;99587.88;5471434;26;19925;-80
2024/04/21 07:45:06;;;;;;;;;;;;;;;15.24;66.53;99591.50;5529468;25;19930;-80
2024/04/21 07:47:32;;;;;;;;;;;;;;;15.39;62.78;99592.66;5475188;26;19935;-79
2024/04/21 07:49:57;;;;;;;;;;;;;;;15.58;62.20;99590.31;5469171;26;19924;-78
2024/04/21 07:52:22;;;;;;;;;;;;;;;15.77;61.48;99596.03;5471723;26;19932;-78
2024/04/21 07:54:49;;;;;;;;;;;;;;;15.73;60.32;99594.94;5468155;26;19924;-78
2024/04/21 07:57:14;;;;;;;;;;;;;;;15.62;59.75;99599.44;5473871;26;19924;-80
2024/04/21 07:59:39;;;;;;;;;;;;;;;15.87;59.61;99606.81;5473124;26;20229;-81
2024/04/21 08:02:05;;;;;;;;;;;;;;;15.78;59.47;99590.41;5457433;26;19936;-79
2024/04/21 08:04:30;;;;;;;;;;;;;;;15.65;61.27;99585.47;5452059;26;19935;-80
2024/04/21 08:06:56;;;;;;;;;;;;;;;15.72;60.37;99591.44;5451439;26;19952;-80
2024/04/21 08:09:22;;;;;;;;;;;;;;;15.82;59.65;99593.38;5452088;26;20014;-80
2024/04/21 08:11:47;;;;;;;;;;;;;;;16.28;60.32;99593.44;5452013;26;19931;-81
2024/04/21 08:14:12;;;;;;;;;;;;;;;16.11;60.63;99593.69;5451979;26;19925;-81
2024/04/21 08:16:38;;;;;;;;;;;;;;;16.41;61.84;99603.69;5454409;26;19931;-79
2024/04/21 08:19:03;;;;;;;;;;;;;;;16.33;59.23;99595.34;5451812;26;19928;-78
2024/04/21 08:21:29;;;;;;;;;;;;;;;16.68;58.12;99613.38;5451827;26;19924;-79
2024/04/21 08:23:54;;;;;;;;;;;;;;;16.80;59.07;99597.72;5451690;26;19924;-80
2024/04/21 08:26:20;;;;;;;;;;;;;;;16.53;59.27;99595.34;5451865;26;19944;-80
2024/04/21 08:28:45;;;;;;;;;;;;;;;16.90;59.71;99588.03;5453948;26;19964;-80
2024/04/21 08:31:10;;;;;;;;;;;;;;;17.03;58.61;99595.56;5450025;26;19976;-81
2024/04/21 08:33:36;;;;;;;;;;;;;;;16.93;57.73;99587.50;5451621;26;19935;-80
2024/04/21 08:36:01;;;;;;;;;;;;;;;17.00;57.77;99598.78;5452021;26;19992;-80
2024/04/21 08:38:27;;;;;;;;;;;;;;;16.85;57.11;99596.94;5454082;26;19930;-79
2024/04/21 08:40:52;;;;;;;;;;;;;;;16.81;56.28;99585.91;5449791;26;19996;-80
2024/04/21 08:43:21;;;;;;;;;;;;;;;16.87;56.08;99587.50;5451837;26;20691;-79
2024/04/21 08:45:49;;;;;;;;;;;;;;;17.13;55.99;99587.47;5449638;26;20245;-80
2024/04/21 08:48:15;;;;;;;;;;;;;;;17.52;54.82;99588.69;5453890;26;19958;-79
2024/04/21 08:50:41;;;;;;;;;;;;;;;17.35;54.19;99589.81;5449621;26;20262;-79
2024/04/21 08:53:06;;;;;;;;;;;;;;;17.09;55.81;99586.41;5451582;26;19933;-79
2024/04/21 08:55:33;;;;;;;;;;;;;;;17.92;52.68;99574.22;5450948;26;20257;-80
2024/04/21 08:57:58;;;;;;;;;;;;;;;18.27;52.34;99583.13;5453834;26;19931;-77
2024/04/21 09:00:24;;;;;;;;;;;;;;;17.99;50.99;99585.47;5451230;26;19932;-79
2024/04/21 09:02:50;;;;;;;;;;;;;;;17.50;52.88;99575.47;5451126;26;19936;-79
2024/04/21 09:05:16;;;;;;;;;;;;;;;17.46;55.11;99571.72;5451171;26;19936;-79
2024/04/21 09:07:42;;;;;;;;;;;;;;;17.24;54.46;99580.97;5453731;26;19993;-80
2024/04/21 09:10:14;;;;;;;;;;;;;;;17.29;53.94;99579.34;5451120;26;19925;-81
2024/04/21 09:12:39;;;;;;;;;;;;;;;17.03;54.85;99574.03;5451264;26;19925;-80
2024/04/21 09:15:08;;;;;;;;;;;;;;;17.06;55.24;99570.75;5450288;26;19931;-80
2024/04/21 09:17:33;;;;;;;;;;;;;;;17.39;55.41;99565.81;5460174;26;19930;-80
2024/04/21 09:19:58;;;;;;;;;;;;;;;17.12;55.21;99568.88;5487557;26;19924;-80
2024/04/21 09:22:25;;;;;;;;;;;;;;;16.87;56.17;99565.16;5487225;26;19988;-80
2024/04/21 09:24:51;;;;;;;;;;;;;;;17.29;54.93;99558.59;5487324;26;19931;-80
2024/04/21 09:27:17;;;;;;;;;;;;;;;16.85;56.90;99560.03;5480316;26;19924;-79
2024/04/21 09:29:43;;;;;;;;;;;;;;;16.74;57.44;99558.44;5451182;26;19935;-80
2024/04/21 09:32:09;;;;;;;;;;;;;;;16.60;57.24;99563.56;5451072;26;20370;-80
2024/04/21 09:34:35;;;;;;;;;;;;;;;16.36;57.53;99552.53;5450813;26;20246;-79
2024/04/21 09:37:01;;;;;;;;;;;;;;;16.56;57.41;99550.91;5450741;26;19924;-80
2024/04/21 09:39:26;;;;;;;;;;;;;;;16.51;58.67;99553.59;5448918;26;19931;-79
2024/04/21 09:41:54;;;;;;;;;;;;;;;17.07;58.68;99557.03;5450864;26;19932;-80
2024/04/21 09:44:20;;;;;;;;;;;;;;;17.27;60.09;99545.38;5450415;26;19924;-80
2024/04/21 09:46:46;;;;;;;;;;;;;;;17.27;57.71;99548.06;5450663;26;19994;-80
2024/04/21 09:49:12;;;;;;;;;;;;;;;17.39;57.84;99555.84;5448727;26;20349;-80
2024/04/21 09:51:38;;;;;;;;;;;;;;;17.28;57.47;99548.88;5450525;26;19993;-80
2024/04/21 09:54:05;;;;;;;;;;;;;;;17.28;58.00;99551.56;5450996;26;19925;-80
2024/04/21 09:56:35;;;;;;;;;;;;;;;16.76;59.14;99550.88;5450839;26;19939;-80
2024/04/21 09:59:00;;;;;;;;;;;;;;;16.80;60.18;99546.56;5451329;26;20284;-80
2024/04/21 10:01:32;;;;;;;;;;;;;;;17.36;57.72;99550.19;5450433;26;20478;-81
2024/04/21 10:04:00;;;;;;;;;;;;;;;17.66;56.49;99547.34;5450678;26;20455;-79
2024/04/21 10:06:28;;;;;;;;;;;;;;;17.73;55.95;99547.03;5450170;26;20073;-81
2024/04/21 10:08:55;;;;;;;;;;;;;;;17.61;56.96;99539.28;5478428;26;19924;-80
2024/04/21 10:11:21;;;;;;;;;;;;;;;17.25;58.50;99544.84;5486943;26;20373;-80
2024/04/21 10:13:47;;;;;;;;;;;;;;;18.27;57.32;99539.94;5486705;26;20377;-80
2024/04/21 10:16:12;;;;;;;;;;;;;;;18.09;56.37;99537.94;5487143;26;19931;-80
2024/04/21 10:18:38;;;;;;;;;;;;;;;18.10;55.75;99531.44;5461178;26;19924;-80
2024/04/21 10:21:04;;;;;;;;;;;;;;;17.52;57.80;99534.75;5450088;26;20253;-82
2024/04/21 10:23:31;;;;;;;;;;;;;;;17.75;57.64;99525.97;5450183;26;19935;-79
2024/04/21 10:25:56;;;;;;;;;;;;;;;18.25;56.18;99534.03;5450052;26;20077;-81
2024/04/21 10:28:27;;;;;;;;;;;;;;;17.95;57.44;99527.78;5466314;26;19987;-80
2024/04/21 10:31:02;;;;;;;;;;;;;;;17.54;59.71;99516.41;5486501;26;19947;-80
2024/04/21 10:33:27;;;;;;;;;;;;;;;18.17;57.85;99526.53;5486495;26;19924;-80
2024/04/21 10:35:52;;;;;;;;;;;;;;;19.24;54.26;99522.75;5486328;26;19931;-79
2024/04/21 10:38:18;;;;;;;;;;;;;;;19.53;53.09;99513.72;5480909;26;20316;-80
2024/04/21 10:40:47;;;;;;;;;;;;;;;19.85;51.47;99523.03;5484706;26;20015;-80
2024/04/21 10:43:14;;;;;;;;;;;;;;;19.50;52.87;99517.03;5486308;26;19992;-81
2024/04/21 10:45:39;;;;;;;;;;;;;;;18.80;54.46;99520.31;5486433;26;19955;-79
2024/04/21 10:48:06;;;;;;;;;;;;;;;18.40;54.75;99506.88;5473897;26;19925;-79
2024/04/21 10:50:33;;;;;;;;;;;;;;;18.55;54.47;99514.06;5450105;26;19956;-81
2024/04/21 10:52:58;;;;;;;;;;;;;;;17.99;57.18;99506.44;5448462;26;20383;-79
2024/04/21 10:55:24;;;;;;;;;;;;;;;17.63;58.50;99507.47;5473056;26;19924;-80
2024/04/21 10:57:49;;;;;;;;;;;;;;;17.36;59.26;99501.69;5467215;26;20004;-79
2024/04/21 11:00:15;;;;;;;;;;;;;;;16.85;61.58;99514.25;5450681;26;19925;-80
2024/04/21 11:02:40;;;;;;;;;;;;;;;16.80;63.25;99516.94;5450445;26;19952;-80
2024/04/21 11:05:05;;;;;;;;;;;;;;;16.61;63.61;99513.22;5450689;26;19924;-81
2024/04/21 11:07:33;;;;;;;;;;;;;;;16.26;67.37;99509.47;5449425;26;19997;-80
2024/04/21 11:09:58;;;;;;;;;;;;;;;16.68;83.90;99502.97;5455843;26;19924;-80
2024/04/21 11:12:24;;;;;;;;;;;;;;;15.68;100.00;99498.94;5454728;26;19932;-81
2024/04/21 11:14:56;;;;;;;;;;;;;;;15.73;100.00;99493.59;5455403;26;19966;-80
2024/04/21 11:17:21;;;;;;;;;;;;;;;15.88;100.00;99482.06;5454055;26;20001;-80
2024/04/21 11:19:46;;;;;;;;;;;;;;;15.81;100.00;99486.88;5456512;26;19936;-82
2024/04/21 11:22:12;;;;;;;;;;;;;;;15.72;100.00;99488.47;5456293;26;20398;-81
2024/04/21 11:24:37;;;;;;;;;;;;;;;15.91;100.00;99497.66;5454375;26;19925;-80
2024/04/21 11:27:05;;;;;;;;;;;;;;;15.49;100.00;99485.22;5454353;26;20256;-79
2024/04/21 11:29:31;;;;;;;;;;;;;;;15.22;100.00;99475.47;5457058;26;19931;-80
2024/04/21 11:31:58;;;;;;;;;;;;;;;15.32;100.00;99479.25;5456492;26;19936;-80
2024/04/21 11:34:24;;;;;;;;;;;;;;;15.39;100.00;99469.06;5454818;26;20366;-80
2024/04/21 11:36:49;;;;;;;;;;;;;;;15.28;100.00;99473.56;5455972;26;19932;-80
2024/04/21 11:39:14;;;;;;;;;;;;;;;14.98;100.00;99468.94;5459616;26;19957;-81
2024/04/21 11:41:39;;;;;;;;;;;;;;;15.13;100.00;99455.53;5457135;26;20539;-82
2024/04/21 11:44:10;;;;;;;;;;;;;;;15.56;100.00;99448.13;5456866;26;19925;-80
2024/04/21 11:46:35;;;;;;;;;;;;;;;15.55;100.00;99449.22;5465794;26;19931;-81
2024/04/21 11:49:00;;;;;;;;;;;;;;;16.07;100.00;99448.16;5472108;26;19934;-80
2024/04/21 11:51:26;;;;;;;;;;;;;;;16.64;100.00;99435.41;5474986;26;19924;-77
2024/04/21 11:53:51;;;;;;;;;;;;;;;16.63;100.00;99427.59;5470803;26;19931;-80
2024/04/21 11:56:17;;;;;;;;;;;;;;;16.87;100.00;99436.69;5472531;26;19924;-79
2024/04/21 11:58:42;;;;;;;;;;;;;;;16.92;100.00;99429.66;5473076;26;19923;-78
2024/04/21 12:01:07;;;;;;;;;;;;;;;17.29;100.00;99428.44;5472410;26;19930;-80
2024/04/21 12:03:33;;;;;;;;;;;;;;;17.13;98.56;99428.50;5469957;26;19993;-79
2024/04/21 12:05:59;;;;;;;;;;;;;;;16.55;82.49;99426.31;5470176;26;19951;-79
2024/04/21 12:08:24;;;;;;;;;;;;;;;16.37;84.89;99430.38;5465432;26;19929;-79
2024/04/21 12:10:49;;;;;;;;;;;;;;;16.56;87.96;99427.09;5476948;26;19931;-79
2024/04/21 12:13:15;;;;;;;;;;;;;;;16.48;90.04;99426.56;5482674;26;19985;-80
2024/04/21 12:15:40;;;;;;;;;;;;;;;16.75;89.20;99425.41;5488271;26;20361;-79
2024/04/21 12:18:06;;;;;;;;;;;;;;;16.58;94.37;99419.56;5485385;26;19924;-79
2024/04/21 12:20:31;;;;;;;;;;;;;;;16.32;93.94;99422.31;5452099;26;19924;-79
2024/04/21 12:22:57;;;;;;;;;;;;;;;16.33;91.93;99410.47;5456567;26;20246;-80
2024/04/21 12:25:22;;;;;;;;;;;;;;;16.65;84.06;99411.97;5465313;26;20017;-79
2024/04/21 12:27:47;;;;;;;;;;;;;;;16.97;88.08;99402.72;5469640;26;20354;-79
2024/04/21 12:30:12;;;;;;;;;;;;;;;17.16;83.09;99409.09;5481328;26;20375;-79
2024/04/21 12:32:38;;;;;;;;;;;;;;;17.29;84.20;99396.09;5488130;26;20356;-79
2024/04/21 12:35:03;;;;;;;;;;;;;;;17.21;75.17;99403.66;5488145;26;19992;-78
2024/04/21 12:37:28;;;;;;;;;;;;;;;17.80;75.71;99395.72;5486242;26;20270;-79